createdAt,value
2023-05-24T00:03:11.534Z,100261.90
2023-05-24T00:08:16.977Z,100253.88
2023-05-24T00:13:22.464Z,100250.83
2023-05-24T00:18:27.966Z,100250.27
2023-05-24T00:23:33.590Z,100250.71
2023-05-24T00:28:38.970Z,100248.45
2023-05-24T00:33:44.459Z,100244.63
2023-05-24T00:38:50.477Z,100237.63
2023-05-24T00:43:55.824Z,100234.76
2023-05-24T00:49:01.828Z,100232.42
2023-05-24T00:54:09.382Z,100231.52
2023-05-24T00:59:15.340Z,100229.52
2023-05-24T01:04:20.844Z,100226.20
2023-05-24T01:09:34.164Z,100228.85
2023-05-24T01:14:48.763Z,100225.93
2023-05-24T01:20:02.395Z,100225.73
2023-05-24T01:25:14.252Z,100228.48
2023-05-24T01:30:20.728Z,100233.23
2023-05-24T01:35:30.329Z,100237.29
2023-05-24T01:40:37.378Z,100239.08
2023-05-24T01:45:54.111Z,100237.84
2023-05-24T01:51:01.436Z,100239.07
2023-05-24T01:56:08.988Z,100246.48
2023-05-24T02:01:14.832Z,100246.88
2023-05-24T02:06:20.448Z,100244.09
2023-05-24T02:11:26.126Z,100244.88
2023-05-24T02:16:31.679Z,100244.34
2023-05-24T02:21:37.350Z,100244.95
2023-05-24T02:26:42.808Z,100248.59
2023-05-24T02:31:52.085Z,100248.19
2023-05-24T02:36:57.748Z,100252.48
2023-05-24T02:42:05.920Z,100255.09
2023-05-24T02:47:11.349Z,100254.73
2023-05-24T02:52:21.602Z,100250.55
2023-05-24T02:57:28.795Z,100250.41
2023-05-24T03:02:38.479Z,100250.21
2023-05-24T03:07:44.955Z,100248.70
2023-05-24T03:12:50.797Z,100248.66
2023-05-24T03:17:57.183Z,100248.96
2023-05-24T03:23:02.824Z,100251.82
2023-05-24T03:28:08.606Z,100255.20
2023-05-24T03:33:14.035Z,100261.98
2023-05-24T03:38:20.358Z,100265.48
2023-05-24T03:43:25.985Z,100270.70
2023-05-24T03:48:35.312Z,100269.98
2023-05-24T03:53:40.644Z,100274.17
2023-05-24T03:58:46.202Z,100278.27
2023-05-24T04:03:52.591Z,100276.52
2023-05-24T04:09:01.124Z,100277.69
2023-05-24T04:14:06.959Z,100281.04
2023-05-24T04:19:12.602Z,100282.80
2023-05-24T04:24:17.994Z,100287.34
2023-05-24T04:29:26.647Z,100289.60
2023-05-24T04:34:35.956Z,100292.45
2023-05-24T04:39:41.774Z,100304.81
2023-05-24T04:44:47.444Z,100315.84
2023-05-24T04:49:53.520Z,100320.40
2023-05-24T04:54:59.058Z,100318.35
2023-05-24T05:00:05.588Z,100315.38
2023-05-24T05:05:12.679Z,100319.98
2023-05-24T05:10:18.260Z,100320.09
2023-05-24T05:15:24.918Z,100326.70
2023-05-24T05:20:30.378Z,100332.84
2023-05-24T05:25:36.030Z,100328.91
2023-05-24T05:30:41.766Z,100330.70
2023-05-24T05:35:47.557Z,100336.40
2023-05-24T05:40:53.036Z,100336.48
2023-05-24T05:45:58.583Z,100335.75
2023-05-24T05:51:05.499Z,100338.02
2023-05-24T05:56:18.167Z,100347.80
2023-05-24T06:01:23.866Z,100351.21
2023-05-24T06:06:29.426Z,100358.66
2023-05-24T06:11:34.820Z,100360.34
2023-05-24T06:16:43.799Z,100364.06
2023-05-24T06:21:50.730Z,100368.89
2023-05-24T06:26:56.741Z,100371.55
2023-05-24T06:32:02.416Z,100374.71
2023-05-24T06:37:10.486Z,100377.73
2023-05-24T06:42:16.053Z,100378.45
2023-05-24T06:47:24.449Z,100381.95
2023-05-24T06:52:29.985Z,100382.23
2023-05-24T06:57:35.325Z,100389.19
2023-05-24T07:02:42.029Z,100386.28
2023-05-24T07:07:48.162Z,100391.83
2023-05-24T07:12:53.507Z,100396.62
2023-05-24T07:17:58.962Z,100397.29
2023-05-24T07:23:07.017Z,100407.16
2023-05-24T07:28:14.275Z,100413.75
2023-05-24T07:33:20.059Z,100414.92
2023-05-24T07:38:26.418Z,100427.07
2023-05-24T07:43:31.988Z,100430.98
2023-05-24T07:48:37.569Z,100435.96
2023-05-24T07:53:43.326Z,100444.36
2023-05-24T07:58:49.282Z,100446.98
2023-05-24T08:05:24.152Z,100452.00
2023-05-24T08:10:29.647Z,100450.48
2023-05-24T08:15:35.240Z,100452.70
2023-05-24T08:20:40.982Z,100455.92
2023-05-24T08:25:46.990Z,100455.58
2023-05-24T08:30:52.778Z,100451.98
2023-05-24T08:35:58.269Z,100459.30
2023-05-24T08:41:08.459Z,100457.36
2023-05-24T08:46:15.465Z,100459.70
2023-05-24T08:51:21.686Z,100461.05
2023-05-24T08:56:28.804Z,100465.69
2023-05-24T09:01:37.953Z,100468.31
2023-05-24T09:06:44.650Z,100472.91
2023-05-24T09:11:53.591Z,100472.93
2023-05-24T09:16:59.851Z,100479.80
2023-05-24T09:22:05.916Z,100479.88
2023-05-24T09:27:11.582Z,100477.34
2023-05-24T09:32:17.557Z,100486.38
2023-05-24T09:37:30.971Z,100489.79
2023-05-24T09:42:38.383Z,100501.03
2023-05-24T09:47:48.269Z,100497.46
2023-05-24T09:52:56.129Z,100497.16
2023-05-24T09:58:08.394Z,100502.70
2023-05-24T10:03:15.353Z,100503.56
2023-05-24T10:08:22.346Z,100501.91
2023-05-24T10:13:28.429Z,100502.23
2023-05-24T10:18:34.486Z,100507.60
2023-05-24T10:23:43.156Z,100505.86
2023-05-24T10:28:53.113Z,100502.33
2023-05-24T10:34:08.007Z,100495.84
2023-05-24T10:39:29.874Z,100494.80
2023-05-24T10:44:35.668Z,100492.20
2023-05-24T10:49:51.446Z,100496.27
2023-05-24T10:55:09.586Z,100504.46
2023-05-24T11:05:54.797Z,100509.13
2023-05-24T11:11:24.536Z,100509.99
2023-05-24T11:16:37.881Z,100525.20
2023-05-24T11:21:47.051Z,100515.56
2023-05-24T11:26:54.002Z,100518.30
2023-05-24T11:32:05.359Z,100525.41
2023-05-24T11:37:14.450Z,100518.05
2023-05-24T11:42:23.619Z,100518.27
2023-05-24T11:47:29.216Z,100516.80
2023-05-24T11:52:38.517Z,100517.66
2023-05-24T11:57:52.706Z,100519.95
2023-05-24T12:03:03.023Z,100512.27
2023-05-24T12:08:12.482Z,100524.06
2023-05-24T12:13:24.158Z,100525.55
2023-05-24T12:18:30.244Z,100528.52
2023-05-24T12:23:37.211Z,100527.17
2023-05-24T12:28:44.100Z,100528.16
2023-05-24T12:33:53.498Z,100525.98
2023-05-24T12:39:00.461Z,100528.27
2023-05-24T12:44:05.998Z,100532.27
2023-05-24T12:49:12.328Z,100532.02
2023-05-24T12:54:20.199Z,100531.26
2023-05-24T12:59:26.234Z,100532.27
2023-05-24T13:04:33.913Z,100527.04
2023-05-24T13:09:39.698Z,100528.92
2023-05-24T13:14:45.417Z,100524.58
2023-05-24T13:19:51.249Z,100518.96
2023-05-24T13:24:56.775Z,100520.01
2023-05-24T13:30:02.554Z,100516.30
2023-05-24T13:35:09.160Z,100515.77
2023-05-24T13:40:15.345Z,100527.92
2023-05-24T13:45:21.650Z,100533.14
2023-05-24T13:50:27.163Z,100525.56
2023-05-24T13:55:37.835Z,100532.92
2023-05-24T14:00:44.091Z,100539.38
2023-05-24T14:05:49.978Z,100545.47
2023-05-24T14:10:55.645Z,100547.83
2023-05-24T14:16:01.310Z,100548.96
2023-05-24T14:21:06.926Z,100556.27
2023-05-24T14:26:12.620Z,100561.76
2023-05-24T14:31:18.407Z,100565.55
2023-05-24T14:36:23.960Z,100559.71
2023-05-24T14:41:29.634Z,100565.92
2023-05-24T14:46:35.125Z,100567.91
2023-05-24T14:51:40.930Z,100568.75
2023-05-24T14:56:46.646Z,100574.04
2023-05-24T15:01:52.539Z,100581.41
2023-05-24T15:06:58.117Z,100581.16
2023-05-24T15:12:05.182Z,100574.28
2023-05-24T15:17:11.577Z,100571.60
2023-05-24T15:22:17.209Z,100573.80
2023-05-24T15:27:22.906Z,100576.21
2023-05-24T15:32:28.251Z,100579.44
2023-05-24T15:37:33.859Z,100581.92
2023-05-24T15:42:39.612Z,100583.77
2023-05-24T15:47:45.358Z,100588.33
2023-05-24T15:52:50.961Z,100594.66
2023-05-24T15:57:58.344Z,100605.17
2023-05-24T16:03:04.161Z,100608.77
2023-05-24T16:08:10.577Z,100620.71
2023-05-24T16:13:16.807Z,100627.81
2023-05-24T16:18:23.506Z,100627.33
2023-05-24T16:23:29.520Z,100627.89
2023-05-24T16:28:34.996Z,100628.39
2023-05-24T16:33:41.313Z,100637.48
2023-05-24T16:38:47.021Z,100647.19
2023-05-24T16:43:52.737Z,100649.77
2023-05-24T16:48:58.834Z,100655.66
2023-05-24T16:54:05.150Z,100658.00
2023-05-24T16:59:10.606Z,100663.74
2023-05-24T17:04:16.441Z,100668.48
2023-05-24T17:09:22.469Z,100670.96
2023-05-24T17:14:28.239Z,100678.89
2023-05-24T17:19:34.363Z,100686.63
2023-05-24T17:24:39.992Z,100692.77
2023-05-24T17:29:46.009Z,100692.08
2023-05-24T17:34:52.823Z,100704.77
2023-05-24T17:39:58.536Z,100700.75
2023-05-24T17:45:05.312Z,100701.77
2023-05-24T17:50:12.319Z,100709.80
2023-05-24T17:55:18.402Z,100719.19
2023-05-24T18:00:24.249Z,100725.74
2023-05-24T18:05:29.994Z,100731.23
2023-05-24T18:10:36.526Z,100740.00
2023-05-24T18:15:42.566Z,100748.02
2023-05-24T18:20:48.571Z,100761.58
2023-05-24T18:26:01.409Z,100767.81
2023-05-24T18:31:14.744Z,100766.49
2023-05-24T18:36:21.077Z,100774.64
2023-05-24T18:41:27.092Z,100780.86
2023-05-24T18:46:33.843Z,100792.80
2023-05-24T18:51:39.409Z,100796.70
2023-05-24T18:56:45.673Z,100800.17
2023-05-24T19:01:53.121Z,100801.88
2023-05-24T19:06:59.857Z,100806.02
2023-05-24T19:12:06.402Z,100811.91
2023-05-24T19:17:12.945Z,100821.35
2023-05-24T19:22:19.386Z,100821.09
2023-05-24T19:27:25.427Z,100823.31
2023-05-24T19:32:32.188Z,100819.67
2023-05-24T19:37:39.359Z,100823.45
2023-05-24T19:42:45.382Z,100833.75
2023-05-24T19:47:52.285Z,100838.17
2023-05-24T19:52:58.360Z,100842.13
2023-05-24T19:58:04.333Z,100838.67
2023-05-24T20:03:10.254Z,100842.61
2023-05-24T20:08:18.157Z,100847.98
2023-05-24T20:13:25.016Z,100849.10
2023-05-24T20:18:30.951Z,100849.27
2023-05-24T20:23:37.207Z,100853.50
2023-05-24T20:28:43.887Z,100855.00
2023-05-24T20:33:51.642Z,100855.38
2023-05-24T20:38:57.439Z,100852.73
2023-05-24T20:44:03.127Z,100858.27
2023-05-24T20:49:08.664Z,100863.72
2023-05-24T20:54:14.121Z,100863.91
2023-05-24T20:59:19.559Z,100872.92
2023-05-24T21:04:25.050Z,100871.56
2023-05-24T21:09:30.940Z,100874.54
2023-05-24T21:14:36.876Z,100876.40
2023-05-24T21:19:42.409Z,100881.81
2023-05-24T21:24:48.167Z,100885.70
2023-05-24T21:29:53.783Z,100885.48
2023-05-24T21:34:59.226Z,100890.92
2023-05-24T21:40:05.988Z,100899.05
2023-05-24T21:45:12.881Z,100900.77
2023-05-24T21:50:18.631Z,100902.48
2023-05-24T21:55:24.495Z,100912.09
2023-05-24T22:00:30.599Z,100911.48
2023-05-24T22:05:36.133Z,100917.64
2023-05-24T22:10:41.618Z,100917.26
2023-05-24T22:15:47.247Z,100915.73
2023-05-24T22:20:52.771Z,100916.08
2023-05-24T22:25:58.338Z,100918.16
2023-05-24T22:31:04.386Z,100920.64
2023-05-24T22:36:12.401Z,100922.30
2023-05-24T22:41:18.160Z,100922.13
2023-05-24T22:46:24.211Z,100919.92
2023-05-24T22:51:29.877Z,100926.31
2023-05-24T22:56:36.161Z,100926.45
2023-05-24T23:01:41.623Z,100923.65
2023-05-24T23:06:47.459Z,100919.86
2023-05-24T23:11:54.691Z,100919.08
2023-05-24T23:17:02.713Z,100918.54
2023-05-24T23:22:08.233Z,100932.61
2023-05-24T23:27:13.899Z,100934.79
2023-05-24T23:32:19.486Z,100939.98
2023-05-24T23:37:25.007Z,100941.45
2023-05-24T23:42:30.857Z,100941.95
2023-05-24T23:47:36.376Z,100947.52
2023-05-24T23:52:41.768Z,100952.21
2023-05-24T23:57:47.642Z,100951.23
